Terminal Aerodrome Forecast
Issued by NWS Cleveland, OH

Home | Current Version | Previous Version | Graphics & Text | Print | Product List | Glossary On
Versions: 1 2 3 4 5 6 7 8 9 10 11 12 13 14 15 16 17 18 19 20 21 22 23 24 25 26 27 28 29
000
FTUS41 KCLE 150500
TAFERI
TAF
KERI 150528Z 1506/1606 24004KT 2SM BR OVC004
      TEMPO 1506/1510 1SM BR OVC002
     FM151400 18004KT 3SM BR OVC008
     FM151800 14006KT 5SM HZ OVC012
     FM152200 12006KT P6SM SCT012 BKN040=

USA.gov is the U.S. government's official web portal to all federal, state and local government web resources and services.